Time;durP1;ratioP1;P1;durP2;ratioP2;P2;SDS_P1;SDS_P2;PMS_P1;PMS_P2;Temp;Humidity;BMP_temperature;BMP_pressure;BME280_temperature;BME280_humidity;BME280_pressure;Samples;Min_cycle;Max_cycle;Signal;HPM_P1;HPM_P2
2022/12/05 00:00:20;;;;;;;16.33;9.70;;;;;;;;;;4992167;28;20978;-67
2022/12/05 00:02:46;;;;;;;12.77;9.67;;;;;;;;;;4992536;28;20499;-67
2022/12/05 00:05:12;;;;;;;13.17;9.53;;;;;;;;;;4991494;28;20453;-67
2022/12/05 00:07:38;;;;;;;13.63;9.83;;;;;;;;;;4991806;28;20913;-67
2022/12/05 00:10:05;;;;;;;12.30;8.37;;;;;;;;;;4990959;28;20441;-67
2022/12/05 00:12:31;;;;;;;15.80;10.53;;;;;;;;;;4992248;28;20448;-67
2022/12/05 00:14:57;;;;;;;11.67;9.27;;;;;;;;;;4990004;28;20496;-67
2022/12/05 00:17:23;;;;;;;15.10;9.00;;;;;;;;;;4992033;28;20432;-66
2022/12/05 00:19:49;;;;;;;14.07;8.60;;;;;;;;;;4991483;28;20528;-67
2022/12/05 00:22:15;;;;;;;13.40;8.83;;;;;;;;;;4991904;28;20784;-67
2022/12/05 00:24:41;;;;;;;17.43;9.80;;;;;;;;;;4990510;28;20511;-67
2022/12/05 00:27:07;;;;;;;12.03;9.00;;;;;;;;;;4991874;28;20428;-67
2022/12/05 00:29:33;;;;;;;15.63;9.90;;;;;;;;;;4990690;28;20436;-67
2022/12/05 00:31:59;;;;;;;11.43;9.20;;;;;;;;;;4991670;28;20480;-67
2022/12/05 00:34:25;;;;;;;13.70;9.80;;;;;;;;;;4991097;28;20445;-67
2022/12/05 00:36:51;;;;;;;10.27;8.73;;;;;;;;;;4991837;28;20606;-67
2022/12/05 00:39:17;;;;;;;10.70;9.10;;;;;;;;;;4990777;28;20456;-67
2022/12/05 00:41:43;;;;;;;13.33;9.83;;;;;;;;;;4990798;28;20490;-67
2022/12/05 00:44:10;;;;;;;15.30;9.63;;;;;;;;;;4991388;28;20663;-67
2022/12/05 00:46:36;;;;;;;12.50;10.00;;;;;;;;;;4991231;28;20445;-67
2022/12/05 00:49:03;;;;;;;16.23;9.70;;;;;;;;;;4990878;28;20544;-67
2022/12/05 00:51:31;;;;;;;17.73;10.67;;;;;;;;;;4990269;28;20436;-67
2022/12/05 00:53:58;;;;;;;28.97;10.47;;;;;;;;;;4989284;28;20440;-67
2022/12/05 00:56:25;;;;;;;13.37;10.07;;;;;;;;;;4990793;28;20484;-67
2022/12/05 00:58:53;;;;;;;16.93;10.60;;;;;;;;;;4990581;28;20457;-67
2022/12/05 01:01:31;;;;;;;16.10;9.90;;;;;;;;;;4991120;28;20441;-67
2022/12/05 01:03:57;;;;;;;13.70;9.80;;;;;;;;;;4990833;28;20848;-67
2022/12/05 01:06:26;;;;;;;15.23;9.93;;;;;;;;;;4990026;28;20475;-67
2022/12/05 01:08:53;;;;;;;14.03;9.60;;;;;;;;;;4990244;28;20521;-67
2022/12/05 01:11:19;;;;;;;17.23;10.63;;;;;;;;;;4990730;28;20944;-67
2022/12/05 01:13:46;;;;;;;15.27;9.80;;;;;;;;;;4990234;28;20441;-67
2022/12/05 01:16:16;;;;;;;18.00;10.13;;;;;;;;;;4988573;28;20535;-67
2022/12/05 01:18:42;;;;;;;16.67;9.13;;;;;;;;;;4988753;28;20448;-67
2022/12/05 01:21:08;;;;;;;19.97;10.87;;;;;;;;;;4990402;28;20437;-67
2022/12/05 01:23:34;;;;;;;14.07;9.70;;;;;;;;;;4990400;28;20843;-67
2022/12/05 01:26:00;;;;;;;15.33;9.73;;;;;;;;;;4990633;28;20525;-67
2022/12/05 01:28:26;;;;;;;16.57;9.20;;;;;;;;;;4990182;28;20922;-67
2022/12/05 01:30:52;;;;;;;17.00;9.20;;;;;;;;;;4989944;28;20524;-67
2022/12/05 01:33:18;;;;;;;15.63;10.70;;;;;;;;;;4989378;28;20464;-67
2022/12/05 01:35:44;;;;;;;15.07;9.47;;;;;;;;;;4989814;28;20492;-67
2022/12/05 01:38:11;;;;;;;14.47;10.03;;;;;;;;;;4989377;28;20440;-67
2022/12/05 01:40:37;;;;;;;16.00;10.33;;;;;;;;;;4990215;28;20454;-67
2022/12/05 01:43:04;;;;;;;14.47;10.53;;;;;;;;;;4989877;28;20488;-67
2022/12/05 01:45:35;;;;;;;14.47;9.80;;;;;;;;;;4990000;28;20488;-67
2022/12/05 01:48:04;;;;;;;14.60;10.77;;;;;;;;;;4989520;28;20534;-67
2022/12/05 01:50:31;;;;;;;17.90;11.70;;;;;;;;;;4989739;28;20922;-67
2022/12/05 01:52:58;;;;;;;13.33;9.30;;;;;;;;;;4989880;28;20928;-67
2022/12/05 01:55:24;;;;;;;22.00;10.80;;;;;;;;;;4989708;28;20495;-67
2022/12/05 01:57:50;;;;;;;16.13;11.87;;;;;;;;;;4990015;28;20864;-67
2022/12/05 02:00:17;;;;;;;17.60;11.03;;;;;;;;;;4989350;28;20433;-67
2022/12/05 02:02:50;;;;;;;13.80;9.73;;;;;;;;;;4989974;28;20933;-67
2022/12/05 02:05:25;;;;;;;17.97;10.40;;;;;;;;;;4989516;28;20925;-67
2022/12/05 02:07:51;;;;;;;14.03;9.80;;;;;;;;;;4989435;28;20440;-67
2022/12/05 02:10:17;;;;;;;15.57;10.53;;;;;;;;;;4989103;28;20437;-67
2022/12/05 02:12:44;;;;;;;17.80;12.03;;;;;;;;;;4988539;28;20441;-67
2022/12/05 02:15:19;;;;;;;17.43;11.63;;;;;;;;;;4990261;28;22229;-67
2022/12/05 02:18:04;;;;;;;14.03;9.63;;;;;;;;;;4990445;28;20909;-67
2022/12/05 02:20:50;;;;;;;22.80;10.50;;;;;;;;;;4989662;28;20941;-67
2022/12/05 02:23:25;;;;;;;15.43;10.37;;;;;;;;;;4985512;28;20800;-67
2022/12/05 02:26:00;;;;;;;20.80;11.53;;;;;;;;;;4989772;28;20951;-67
2022/12/05 02:28:45;;;;;;;15.13;9.47;;;;;;;;;;4989525;28;20490;-66
2022/12/05 02:31:31;;;;;;;15.03;9.30;;;;;;;;;;4989008;28;20819;-67
2022/12/05 02:34:10;;;;;;;15.37;10.03;;;;;;;;;;4989022;28;20445;-67
2022/12/05 02:36:59;;;;;;;14.27;10.00;;;;;;;;;;4989360;28;20492;-67
2022/12/05 02:39:25;;;;;;;18.57;10.10;;;;;;;;;;4984851;28;20445;-67
2022/12/05 02:42:08;;;;;;;15.10;9.63;;;;;;;;;;4989610;28;20531;-67
2022/12/05 02:44:41;;;;;;;13.93;9.27;;;;;;;;;;4989782;28;20964;-67
2022/12/05 02:47:08;;;;;;;16.53;10.37;;;;;;;;;;4988501;28;20539;-67
2022/12/05 02:49:36;;;;;;;17.70;11.50;;;;;;;;;;4989547;28;20472;-67
2022/12/05 02:52:04;;;;;;;16.33;10.90;;;;;;;;;;4989474;28;20429;-67
2022/12/05 02:54:33;;;;;;;21.57;10.70;;;;;;;;;;4989029;28;20491;-67
2022/12/05 02:57:00;;;;;;;18.17;10.43;;;;;;;;;;4988985;28;20460;-67
2022/12/05 02:59:26;;;;;;;16.20;10.40;;;;;;;;;;4988477;28;20510;-67
2022/12/05 03:01:52;;;;;;;13.00;9.20;;;;;;;;;;4989269;28;20475;-67
2022/12/05 03:04:20;;;;;;;18.57;10.67;;;;;;;;;;4989585;28;20469;-67
2022/12/05 03:06:58;;;;;;;19.03;10.57;;;;;;;;;;5004663;28;20433;-67
2022/12/05 03:09:28;;;;;;;16.10;9.27;;;;;;;;;;4988754;28;20435;-67
2022/12/05 03:11:58;;;;;;;11.83;8.70;;;;;;;;;;4988670;28;20527;-67
2022/12/05 03:14:32;;;;;;;17.73;10.47;;;;;;;;;;4988851;28;20425;-67
2022/12/05 03:17:01;;;;;;;20.63;9.53;;;;;;;;;;4993243;28;20956;-67
2022/12/05 03:19:30;;;;;;;17.07;9.30;;;;;;;;;;4992561;28;20455;-67
2022/12/05 03:22:01;;;;;;;17.87;10.10;;;;;;;;;;4992502;28;20921;-67
2022/12/05 03:24:27;;;;;;;11.60;9.40;;;;;;;;;;4991790;28;20464;-67
2022/12/05 03:27:15;;;;;;;15.70;10.33;;;;;;;;;;4993079;28;20951;-67
2022/12/05 03:29:44;;;;;;;17.27;9.67;;;;;;;;;;4992380;28;20444;-67
2022/12/05 03:32:13;;;;;;;10.90;8.70;;;;;;;;;;4992738;28;20528;-67
2022/12/05 03:34:44;;;;;;;16.40;9.77;;;;;;;;;;5008027;28;20464;-66
2022/12/05 03:37:14;;;;;;;17.50;9.83;;;;;;;;;;5007043;28;20995;-67
2022/12/05 03:39:44;;;;;;;15.43;10.20;;;;;;;;;;5006876;28;20851;-67
2022/12/05 03:42:10;;;;;;;14.63;10.17;;;;;;;;;;4992574;28;21000;-67
2022/12/05 03:44:43;;;;;;;19.30;10.00;;;;;;;;;;4992260;28;20560;-67
2022/12/05 03:47:12;;;;;;;17.17;11.13;;;;;;;;;;4990819;28;20480;-67
2022/12/05 03:49:48;;;;;;;14.83;9.87;;;;;;;;;;4990832;28;20536;-67
2022/12/05 03:52:20;;;;;;;16.30;10.07;;;;;;;;;;4991772;28;20503;-67
2022/12/05 03:54:49;;;;;;;13.90;9.40;;;;;;;;;;4991547;28;20452;-67
2022/12/05 03:57:18;;;;;;;14.67;10.50;;;;;;;;;;4992087;28;20498;-67
2022/12/05 03:59:47;;;;;;;13.93;9.80;;;;;;;;;;4991641;28;20443;-67
2022/12/05 04:02:15;;;;;;;13.83;9.13;;;;;;;;;;4990682;28;20445;-67
2022/12/05 04:04:47;;;;;;;15.60;10.00;;;;;;;;;;4991796;28;20944;-67
2022/12/05 04:07:15;;;;;;;13.23;9.40;;;;;;;;;;4990869;28;20441;-67
2022/12/05 04:09:44;;;;;;;15.00;9.80;;;;;;;;;;4990524;28;20433;-67
2022/12/05 04:12:14;;;;;;;14.27;10.37;;;;;;;;;;4992096;28;20464;-67
2022/12/05 04:14:42;;;;;;;13.50;10.10;;;;;;;;;;4990888;28;20503;-67
2022/12/05 04:17:17;;;;;;;15.30;10.00;;;;;;;;;;4992110;28;20472;-67
2022/12/05 04:22:32;;;;;;;17.90;10.10;;;;;;;;;;4991580;28;21078;-66
2022/12/05 04:28:02;;;;;;;13.70;9.93;;;;;;;;;;4991417;28;20537;-67
2022/12/05 04:30:33;;;;;;;20.53;10.00;;;;;;;;;;4991134;28;20486;-67
2022/12/05 04:32:59;;;;;;;12.77;9.03;;;;;;;;;;4990892;28;20495;-67
2022/12/05 04:35:29;;;;;;;19.77;10.70;;;;;;;;;;4991536;28;20492;-67
2022/12/05 04:37:58;;;;;;;13.87;9.30;;;;;;;;;;4990450;28;20435;-67
2022/12/05 04:40:47;;;;;;;14.70;9.80;;;;;;;;;;4991183;28;20439;-67
2022/12/05 04:43:14;;;;;;;13.20;9.50;;;;;;;;;;4985898;28;20979;-67
2022/12/05 04:45:41;;;;;;;12.43;8.50;;;;;;;;;;4991607;28;20486;-67
2022/12/05 04:48:10;;;;;;;13.23;9.10;;;;;;;;;;4989870;28;20505;-67
2022/12/05 04:50:37;;;;;;;12.60;8.57;;;;;;;;;;5005401;28;20437;-67
2022/12/05 04:53:04;;;;;;;14.87;9.10;;;;;;;;;;4990924;28;20571;-67
2022/12/05 04:55:31;;;;;;;18.30;10.50;;;;;;;;;;4991051;28;20492;-67
2022/12/05 04:58:14;;;;;;;13.63;9.37;;;;;;;;;;4990651;28;20441;-67
2022/12/05 05:00:48;;;;;;;16.27;9.30;;;;;;;;;;4990165;28;20444;-67
2022/12/05 05:03:21;;;;;;;10.53;9.27;;;;;;;;;;4989990;28;20528;-67
2022/12/05 05:05:48;;;;;;;13.80;9.27;;;;;;;;;;4991002;28;20425;-67
2022/12/05 05:08:19;;;;;;;11.83;9.23;;;;;;;;;;4990166;28;21013;-67
2022/12/05 05:10:50;;;;;;;8.27;7.47;;;;;;;;;;4990832;28;20804;-67
2022/12/05 05:13:16;;;;;;;7.50;6.40;;;;;;;;;;4990701;28;20445;-67
2022/12/05 05:15:41;;;;;;;7.70;6.23;;;;;;;;;;4990082;28;20480;-67
2022/12/05 05:18:09;;;;;;;7.57;6.80;;;;;;;;;;4990362;28;20475;-67
2022/12/05 05:20:35;;;;;;;7.20;5.43;;;;;;;;;;4990273;28;20429;-67
2022/12/05 05:23:01;;;;;;;7.50;6.67;;;;;;;;;;4989864;28;20440;-67
2022/12/05 05:25:27;;;;;;;6.53;6.00;;;;;;;;;;4990955;28;20457;-67
2022/12/05 05:27:54;;;;;;;7.07;6.40;;;;;;;;;;4989871;28;20480;-67
2022/12/05 05:30:20;;;;;;;6.37;5.90;;;;;;;;;;4990350;28;20433;-67
2022/12/05 05:32:46;;;;;;;6.77;6.10;;;;;;;;;;4989184;28;20426;-67
2022/12/05 05:35:13;;;;;;;10.07;6.73;;;;;;;;;;4990555;28;20489;-68
2022/12/05 05:37:39;;;;;;;6.60;6.10;;;;;;;;;;4989540;28;20802;-67
2022/12/05 05:40:06;;;;;;;7.50;6.57;;;;;;;;;;5004719;28;20850;-67
2022/12/05 05:42:32;;;;;;;6.70;6.03;;;;;;;;;;4990231;28;20432;-67
2022/12/05 05:44:58;;;;;;;4.97;4.60;;;;;;;;;;4990229;28;20476;-67
2022/12/05 05:47:24;;;;;;;6.17;5.67;;;;;;;;;;4989789;28;20497;-67
2022/12/05 05:49:50;;;;;;;5.93;5.30;;;;;;;;;;4989633;28;20444;-67
2022/12/05 05:52:16;;;;;;;5.33;4.93;;;;;;;;;;4988798;28;20516;-67
2022/12/05 05:54:42;;;;;;;7.07;6.53;;;;;;;;;;4989927;28;20449;-67
2022/12/05 05:57:08;;;;;;;4.90;4.53;;;;;;;;;;4990101;28;20445;-67
2022/12/05 05:59:34;;;;;;;5.53;5.23;;;;;;;;;;4988959;28;20425;-67
2022/12/05 06:02:00;;;;;;;6.00;5.60;;;;;;;;;;4985390;28;20962;-67
2022/12/05 06:04:26;;;;;;;5.37;5.07;;;;;;;;;;4985888;28;20463;-67
2022/12/05 06:06:51;;;;;;;5.90;5.30;;;;;;;;;;4985089;28;20437;-67
2022/12/05 06:09:17;;;;;;;14.77;4.70;;;;;;;;;;4909827;28;20469;-67
2022/12/05 06:11:43;;;;;;;4.00;3.80;;;;;;;;;;4965953;28;20449;-67
2022/12/05 06:14:09;;;;;;;5.37;4.97;;;;;;;;;;4969208;28;20504;-67
2022/12/05 06:16:35;;;;;;;5.37;5.00;;;;;;;;;;4969321;28;20477;-67
2022/12/05 06:19:01;;;;;;;5.03;4.63;;;;;;;;;;4969390;28;20457;-67
2022/12/05 06:21:27;;;;;;;4.93;4.60;;;;;;;;;;4968588;28;20454;-66
2022/12/05 06:23:53;;;;;;;5.90;5.33;;;;;;;;;;4968634;28;20430;-67
2022/12/05 06:26:21;;;;;;;7.83;5.73;;;;;;;;;;4968952;28;20442;-67
2022/12/05 06:28:47;;;;;;;9.17;8.37;;;;;;;;;;4969128;28;20434;-67
2022/12/05 06:31:17;;;;;;;5.37;4.90;;;;;;;;;;4968163;28;20450;-67
2022/12/05 06:33:43;;;;;;;5.93;5.53;;;;;;;;;;4969516;28;20845;-67
2022/12/05 06:36:11;;;;;;;5.03;4.73;;;;;;;;;;4969602;28;20481;-67
2022/12/05 06:38:37;;;;;;;4.03;3.87;;;;;;;;;;4970015;28;20927;-67
2022/12/05 06:41:11;;;;;;;4.17;3.90;;;;;;;;;;4970227;28;20961;-67
2022/12/05 06:43:37;;;;;;;5.27;4.97;;;;;;;;;;4969345;28;20430;-67
2022/12/05 06:46:07;;;;;;;5.07;4.70;;;;;;;;;;4967649;28;20445;-68
2022/12/05 06:48:33;;;;;;;4.67;4.37;;;;;;;;;;4969857;28;20476;-67
2022/12/05 06:50:59;;;;;;;5.00;4.60;;;;;;;;;;4968622;28;20841;-66
2022/12/05 06:53:25;;;;;;;5.17;4.13;;;;;;;;;;4971324;28;20493;-67
2022/12/05 06:55:54;;;;;;;6.63;4.97;;;;;;;;;;4972871;28;20981;-66
2022/12/05 06:58:20;;;;;;;4.80;4.50;;;;;;;;;;4972409;28;20445;-67
2022/12/05 07:03:31;;;;;;;3.80;3.63;;;;;;;;;;4973574;28;20975;-67
2022/12/05 07:05:59;;;;;;;3.73;3.53;;;;;;;;;;4972773;28;20434;-67
2022/12/05 07:08:25;;;;;;;4.90;4.50;;;;;;;;;;4971208;28;20441;-72
2022/12/05 07:10:52;;;;;;;4.33;4.10;;;;;;;;;;4973643;28;20438;-67
2022/12/05 07:13:18;;;;;;;3.50;3.20;;;;;;;;;;4974133;28;20422;-67
2022/12/05 07:15:48;;;;;;;4.70;3.90;;;;;;;;;;4972822;28;20532;-67
2022/12/05 07:18:14;;;;;;;4.07;3.77;;;;;;;;;;4972785;28;20476;-67
2022/12/05 07:20:40;;;;;;;4.13;3.93;;;;;;;;;;4972560;28;20493;-67
2022/12/05 07:23:06;;;;;;;3.90;3.63;;;;;;;;;;4973733;28;20433;-67
2022/12/05 07:25:32;;;;;;;4.13;3.70;;;;;;;;;;4973851;28;20430;-67
2022/12/05 07:27:58;;;;;;;4.78;4.47;;;;;;;;;;4969195;28;20450;-67
2022/12/05 07:30:24;;;;;;;3.97;3.77;;;;;;;;;;4969329;28;20190;-67
2022/12/05 07:32:50;;;;;;;4.60;4.40;;;;;;;;;;4971547;28;20454;-67
2022/12/05 07:35:16;;;;;;;4.50;4.30;;;;;;;;;;4972708;28;20481;-66
2022/12/05 07:37:41;;;;;;;4.20;3.93;;;;;;;;;;4972398;28;20918;-67
2022/12/05 07:40:08;;;;;;;4.47;4.30;;;;;;;;;;4971397;28;20453;-67
2022/12/05 07:42:34;;;;;;;4.13;3.83;;;;;;;;;;4972276;28;20915;-67
2022/12/05 07:45:00;;;;;;;3.40;3.10;;;;;;;;;;4972175;28;21034;-67
2022/12/05 07:47:26;;;;;;;4.80;4.50;;;;;;;;;;4972688;28;20474;-67
2022/12/05 07:49:52;;;;;;;3.93;3.70;;;;;;;;;;4971752;28;20517;-67
2022/12/05 07:52:18;;;;;;;5.20;3.97;;;;;;;;;;4971894;28;20495;-68
2022/12/05 07:54:44;;;;;;;3.63;3.50;;;;;;;;;;4971746;28;20441;-68
2022/12/05 07:57:09;;;;;;;3.40;3.17;;;;;;;;;;4972965;28;20442;-68
2022/12/05 07:59:35;;;;;;;3.50;3.30;;;;;;;;;;4972089;28;20441;-68
2022/12/05 08:02:01;;;;;;;2.93;2.83;;;;;;;;;;4969602;28;20442;-67
2022/12/05 08:04:30;;;;;;;3.73;2.90;;;;;;;;;;4971797;28;22194;-67
2022/12/05 08:06:56;;;;;;;3.00;2.80;;;;;;;;;;4967876;28;20449;-67
2022/12/05 08:09:22;;;;;;;3.80;2.53;;;;;;;;;;4970952;28;20445;-67
2022/12/05 08:11:48;;;;;;;4.27;2.80;;;;;;;;;;4972357;28;20438;-69
2022/12/05 08:14:14;;;;;;;3.53;3.07;;;;;;;;;;4971665;28;20528;-67
2022/12/05 08:16:40;;;;;;;2.40;2.40;;;;;;;;;;4970210;28;20556;-67
2022/12/05 08:19:07;;;;;;;1.93;1.83;;;;;;;;;;4970433;28;20493;-67
2022/12/05 08:21:34;;;;;;;2.07;2.07;;;;;;;;;;4972658;28;20493;-67
2022/12/05 08:24:00;;;;;;;2.37;2.27;;;;;;;;;;4972127;28;20438;-67
2022/12/05 08:26:27;;;;;;;2.47;2.30;;;;;;;;;;4972361;28;20445;-67
2022/12/05 08:28:54;;;;;;;2.80;2.70;;;;;;;;;;4967419;28;20524;-68
2022/12/05 08:31:22;;;;;;;2.27;2.27;;;;;;;;;;4968714;28;20442;-67
2022/12/05 08:33:51;;;;;;;1.73;1.73;;;;;;;;;;4970794;28;20442;-67
2022/12/05 08:36:18;;;;;;;2.50;2.50;;;;;;;;;;4971680;28;20489;-67
2022/12/05 08:38:44;;;;;;;2.80;2.70;;;;;;;;;;4969105;28;20464;-67
2022/12/05 08:41:11;;;;;;;2.13;2.10;;;;;;;;;;4970989;28;20799;-67
2022/12/05 08:43:38;;;;;;;1.93;1.93;;;;;;;;;;4970652;28;20473;-68
2022/12/05 08:46:04;;;;;;;2.73;2.63;;;;;;;;;;4971736;28;20440;-68
2022/12/05 08:48:31;;;;;;;2.30;2.20;;;;;;;;;;4971015;28;20466;-67
2022/12/05 08:50:57;;;;;;;2.20;2.00;;;;;;;;;;4970876;28;20469;-68
2022/12/05 08:53:23;;;;;;;2.07;2.03;;;;;;;;;;4969984;28;20434;-67
2022/12/05 08:55:49;;;;;;;3.27;2.30;;;;;;;;;;4970608;28;20493;-68
2022/12/05 08:58:15;;;;;;;3.47;3.27;;;;;;;;;;4971051;28;20533;-66
2022/12/05 09:00:42;;;;;;;7.60;2.10;;;;;;;;;;4969599;28;20434;-66
2022/12/05 09:03:11;;;;;;;2.30;2.20;;;;;;;;;;4971218;28;20787;-66
2022/12/05 09:05:37;;;;;;;1.87;1.87;;;;;;;;;;4971057;28;20473;-66
2022/12/05 09:08:03;;;;;;;3.43;2.67;;;;;;;;;;4969992;28;20422;-67
2022/12/05 09:10:30;;;;;;;2.20;2.20;;;;;;;;;;5048431;23;20914;-66
2022/12/05 09:12:56;;;;;;;2.60;2.40;;;;;;;;;;4970996;28;20499;-66
2022/12/05 09:15:22;;;;;;;2.90;2.80;;;;;;;;;;4988389;28;20477;-67
2022/12/05 09:17:48;;;;;;;2.63;2.53;;;;;;;;;;4986933;28;20799;-67
2022/12/05 09:20:14;;;;;;;2.70;2.50;;;;;;;;;;4969080;28;20497;-67
2022/12/05 09:22:40;;;;;;;2.27;2.20;;;;;;;;;;4988789;28;20441;-67
2022/12/05 09:25:07;;;;;;;2.70;2.50;;;;;;;;;;4989840;28;20807;-66
2022/12/05 09:27:33;;;;;;;8.67;2.30;;;;;;;;;;4988127;28;20822;-67
2022/12/05 09:29:59;;;;;;;2.43;2.33;;;;;;;;;;4988881;28;20436;-67
2022/12/05 09:32:25;;;;;;;5.20;3.03;;;;;;;;;;4989468;28;21008;-67
2022/12/05 09:34:51;;;;;;;2.27;2.17;;;;;;;;;;4971602;28;20540;-67
2022/12/05 09:37:17;;;;;;;2.47;2.27;;;;;;;;;;4988526;28;20453;-67
2022/12/05 09:39:46;;;;;;;2.60;2.40;;;;;;;;;;4988798;28;20469;-67
2022/12/05 09:42:19;;;;;;;3.13;2.87;;;;;;;;;;4989204;28;20451;-67
2022/12/05 09:45:13;;;;;;;2.80;2.60;;;;;;;;;;4989473;28;20967;-67
2022/12/05 09:47:57;;;;;;;3.07;2.20;;;;;;;;;;4988761;28;20441;-67
2022/12/05 09:50:27;;;;;;;4.13;3.80;;;;;;;;;;4972564;28;20435;-77
2022/12/05 09:53:08;;;;;;;3.30;3.10;;;;;;;;;;4988553;28;20528;-67
2022/12/05 09:55:41;;;;;;;2.57;2.47;;;;;;;;;;4988435;28;20542;-67
2022/12/05 09:58:16;;;;;;;4.07;1.80;;;;;;;;;;4986246;28;20809;-67
2022/12/05 10:00:42;;;;;;;10.03;1.73;;;;;;;;;;4987936;28;20498;-67
2022/12/05 10:03:18;;;;;;;1.80;1.80;;;;;;;;;;4989582;28;20437;-67
2022/12/05 10:06:01;;;;;;;2.30;2.30;;;;;;;;;;4971774;28;20445;-67
2022/12/05 10:08:41;;;;;;;2.23;2.13;;;;;;;;;;4988891;28;20766;-66
2022/12/05 10:11:10;;;;;;;2.23;2.13;;;;;;;;;;4988196;28;21067;-67
2022/12/05 10:13:43;;;;;;;2.33;2.23;;;;;;;;;;4989669;28;20539;-67
2022/12/05 10:16:12;;;;;;;5.80;2.80;;;;;;;;;;4988567;28;20794;-67
2022/12/05 10:18:41;;;;;;;2.10;2.00;;;;;;;;;;4971192;28;20483;-67
2022/12/05 10:21:07;;;;;;;2.17;2.10;;;;;;;;;;4989016;28;20441;-67
2022/12/05 10:23:49;;;;;;;2.87;2.77;;;;;;;;;;4989916;28;20471;-68
2022/12/05 10:26:15;;;;;;;3.00;2.90;;;;;;;;;;4992902;28;21164;-67
2022/12/05 10:28:55;;;;;;;4.53;4.23;;;;;;;;;;4991733;28;20433;-67
2022/12/05 10:31:24;;;;;;;3.57;3.27;;;;;;;;;;4975904;28;20532;-67
2022/12/05 10:33:56;;;;;;;3.20;3.10;;;;;;;;;;4993017;28;20487;-67
2022/12/05 10:36:25;;;;;;;2.57;2.43;;;;;;;;;;4991862;28;20562;-68
2022/12/05 10:38:51;;;;;;;3.27;3.03;;;;;;;;;;4992531;28;20440;-67
2022/12/05 10:41:17;;;;;;;3.03;2.93;;;;;;;;;;4992189;28;20448;-67
2022/12/05 10:43:44;;;;;;;6.20;3.43;;;;;;;;;;5066526;23;20504;-67
2022/12/05 10:46:15;;;;;;;3.67;3.30;;;;;;;;;;4995333;28;20436;-67
2022/12/05 10:48:42;;;;;;;3.00;2.80;;;;;;;;;;4995120;28;20497;-67
2022/12/05 10:51:13;;;;;;;7.47;2.90;;;;;;;;;;5011800;28;20436;-67
2022/12/05 10:53:40;;;;;;;3.00;2.90;;;;;;;;;;5009585;28;20482;-67
2022/12/05 10:56:25;;;;;;;6.80;4.20;;;;;;;;;;4994886;28;20479;-67
2022/12/05 10:58:55;;;;;;;4.13;3.73;;;;;;;;;;5011529;28;21635;-67
2022/12/05 11:01:22;;;;;;;3.97;2.90;;;;;;;;;;5012067;28;20454;-67
2022/12/05 11:03:55;;;;;;;3.60;3.40;;;;;;;;;;5011413;28;20558;-67
2022/12/05 11:06:29;;;;;;;4.53;4.13;;;;;;;;;;5011640;28;20446;-67
2022/12/05 11:08:58;;;;;;;4.67;4.27;;;;;;;;;;5011170;28;20523;-67
2022/12/05 11:11:27;;;;;;;7.17;3.77;;;;;;;;;;5012277;28;20438;-67
2022/12/05 11:13:57;;;;;;;2.73;2.63;;;;;;;;;;5011772;28;20459;-67
2022/12/05 11:16:31;;;;;;;7.97;7.10;;;;;;;;;;4994795;28;21026;-67
2022/12/05 11:19:17;;;;;;;5.23;4.60;;;;;;;;;;5010260;28;20412;-67
2022/12/05 11:21:43;;;;;;;8.93;3.43;;;;;;;;;;4994056;28;20459;-67
2022/12/05 11:24:24;;;;;;;4.93;4.63;;;;;;;;;;5011354;28;20530;-67
2022/12/05 11:26:50;;;;;;;24.70;14.27;;;;;;;;;;5012046;28;20531;-67
2022/12/05 11:29:38;;;;;;;18.73;9.97;;;;;;;;;;5007474;28;20432;-67
2022/12/05 11:32:06;;;;;;;23.60;15.53;;;;;;;;;;5009353;28;20451;-67
2022/12/05 11:34:39;;;;;;;15.50;11.90;;;;;;;;;;4993692;28;20433;-67
2022/12/05 11:37:25;;;;;;;5.00;4.80;;;;;;;;;;5009991;28;20952;-67
2022/12/05 11:39:51;;;;;;;6.93;2.70;;;;;;;;;;5010581;28;20428;-67
2022/12/05 11:42:24;;;;;;;2.77;2.67;;;;;;;;;;5011462;28;20885;-67
2022/12/05 11:44:59;;;;;;;2.30;2.10;;;;;;;;;;5010781;28;20857;-67
2022/12/05 11:47:25;;;;;;;5.77;5.33;;;;;;;;;;5011238;28;20516;-67
2022/12/05 11:50:02;;;;;;;10.93;9.93;;;;;;;;;;5010849;28;20459;-67
2022/12/05 11:52:47;;;;;;;3.27;3.17;;;;;;;;;;5011105;28;20794;-67
2022/12/05 11:55:20;;;;;;;3.57;3.37;;;;;;;;;;5010697;28;20483;-68
2022/12/05 11:57:52;;;;;;;4.53;4.33;;;;;;;;;;5011097;28;20479;-67
2022/12/05 12:00:24;;;;;;;4.40;3.83;;;;;;;;;;5009202;28;20823;-67
2022/12/05 12:03:02;;;;;;;14.83;6.73;;;;;;;;;;5009467;28;20464;-67
2022/12/05 12:05:41;;;;;;;5.23;4.83;;;;;;;;;;5008154;28;20514;-67
2022/12/05 12:08:16;;;;;;;4.10;3.80;;;;;;;;;;5007386;28;20444;-67
2022/12/05 12:10:48;;;;;;;3.10;3.00;;;;;;;;;;5008891;28;20435;-67
2022/12/05 12:13:14;;;;;;;11.83;4.43;;;;;;;;;;5010588;28;20432;-67
2022/12/05 12:15:40;;;;;;;4.23;3.93;;;;;;;;;;5011485;28;20526;-67
2022/12/05 12:18:17;;;;;;;12.83;2.90;;;;;;;;;;4993644;28;20483;-67
2022/12/05 12:21:02;;;;;;;2.30;1.57;;;;;;;;;;5010313;28;20438;-67
2022/12/05 12:23:40;;;;;;;2.47;2.47;;;;;;;;;;5010409;28;20828;-67
2022/12/05 12:26:11;;;;;;;7.73;6.93;;;;;;;;;;5010593;28;20462;-67
2022/12/05 12:28:41;;;;;;;1.97;1.87;;;;;;;;;;5010783;28;20455;-67
2022/12/05 12:31:10;;;;;;;2.00;2.00;;;;;;;;;;5009055;28;20802;-67
2022/12/05 12:33:48;;;;;;;2.40;1.90;;;;;;;;;;5009354;28;20455;-67
2022/12/05 12:36:17;;;;;;;2.20;2.17;;;;;;;;;;5010719;28;20483;-67
2022/12/05 12:38:52;;;;;;;9.13;2.27;;;;;;;;;;5010114;28;20928;-66
2022/12/05 12:41:33;;;;;;;1.90;1.90;;;;;;;;;;5011043;28;21682;-66
2022/12/05 12:44:22;;;;;;;12.27;2.00;;;;;;;;;;4993493;28;20991;-67
2022/12/05 12:46:48;;;;;;;2.00;2.00;;;;;;;;;;4992295;28;21156;-67
2022/12/05 12:49:23;;;;;;;2.83;2.10;;;;;;;;;;5010527;28;20432;-67
2022/12/05 12:51:53;;;;;;;3.57;3.47;;;;;;;;;;5010623;28;20434;-67
2022/12/05 12:54:29;;;;;;;3.13;2.17;;;;;;;;;;5008850;28;20948;-67
2022/12/05 12:56:55;;;;;;;5.27;4.87;;;;;;;;;;4992541;28;20491;-67
2022/12/05 12:59:21;;;;;;;10.13;2.90;;;;;;;;;;5009075;28;20431;-67
2022/12/05 13:01:53;;;;;;;103.03;39.37;;;;;;;;;;5008753;28;20420;-67
2022/12/05 13:04:23;;;;;;;4.33;4.03;;;;;;;;;;5009319;28;20903;-67
2022/12/05 13:06:51;;;;;;;4.20;3.80;;;;;;;;;;5008187;28;20447;-67
2022/12/05 13:09:17;;;;;;;3.90;3.80;;;;;;;;;;5009758;28;20446;-67
2022/12/05 13:11:43;;;;;;;4.40;4.10;;;;;;;;;;5008752;28;20527;-67
2022/12/05 13:14:11;;;;;;;3.43;3.23;;;;;;;;;;5010581;28;20523;-67
2022/12/05 13:16:39;;;;;;;2.90;2.77;;;;;;;;;;5010517;28;20499;-67
2022/12/05 13:19:06;;;;;;;14.53;4.43;;;;;;;;;;5009812;28;20486;-66
2022/12/05 13:21:32;;;;;;;14.00;8.90;;;;;;;;;;5009819;28;20444;-67
2022/12/05 13:24:02;;;;;;;39.90;14.87;;;;;;;;;;5009181;28;20486;-67
2022/12/05 13:26:28;;;;;;;4.40;4.00;;;;;;;;;;5010572;28;20531;-67
2022/12/05 13:28:55;;;;;;;15.70;11.07;;;;;;;;;;5009018;28;20428;-67
2022/12/05 13:31:35;;;;;;;7.13;4.63;;;;;;;;;;4991823;28;21016;-67
2022/12/05 13:34:01;;;;;;;2.20;2.20;;;;;;;;;;5010716;28;20436;-67
2022/12/05 13:42:13;;;;;;;2.27;2.20;;;;;;;;;;5009279;28;20474;-67
2022/12/05 13:44:51;;;;;;;2.63;2.63;;;;;;;;;;5009891;28;20471;-66
2022/12/05 13:47:19;;;;;;;18.53;3.90;;;;;;;;;;5008525;28;20915;-67
2022/12/05 13:50:12;;;;;;;3.20;2.30;;;;;;;;;;5009136;28;20466;-67
2022/12/05 13:52:41;;;;;;;1.90;1.90;;;;;;;;;;4962359;28;20432;-67
2022/12/05 13:55:22;;;;;;;6.67;3.47;;;;;;;;;;5007628;28;20453;-67
2022/12/05 13:57:50;;;;;;;9.70;4.10;;;;;;;;;;5008955;28;20952;-67
2022/12/05 14:00:16;;;;;;;3.80;3.60;;;;;;;;;;4991312;28;20812;-66
2022/12/05 14:02:42;;;;;;;5.70;5.40;;;;;;;;;;5010090;28;20416;-66
2022/12/05 14:05:11;;;;;;;2.70;2.60;;;;;;;;;;5010078;28;20931;-67
2022/12/05 14:07:47;;;;;;;2.83;2.40;;;;;;;;;;4997625;28;20952;-67
2022/12/05 14:10:20;;;;;;;1.87;1.77;;;;;;;;;;5007751;28;20450;-67
2022/12/05 14:12:48;;;;;;;1.20;1.20;;;;;;;;;;5008935;28;20566;-67
2022/12/05 14:15:31;;;;;;;2.47;2.20;;;;;;;;;;5009135;28;20440;-67
2022/12/05 14:18:01;;;;;;;5.47;4.63;;;;;;;;;;5009640;28;20426;-67
2022/12/05 14:20:30;;;;;;;2.43;2.33;;;;;;;;;;5009171;28;20448;-67
2022/12/05 14:23:15;;;;;;;8.17;6.50;;;;;;;;;;5009153;28;20519;-67
2022/12/05 14:25:50;;;;;;;1.37;1.37;;;;;;;;;;5008738;28;20424;-67
2022/12/05 14:28:28;;;;;;;1.87;1.87;;;;;;;;;;5008918;28;20948;-67
2022/12/05 14:31:17;;;;;;;5.13;2.03;;;;;;;;;;4996531;28;20476;-67
2022/12/05 14:33:43;;;;;;;3.97;2.67;;;;;;;;;;5008135;28;20804;-67
2022/12/05 14:36:15;;;;;;;2.40;2.00;;;;;;;;;;5008253;28;20488;-66
2022/12/05 14:38:41;;;;;;;2.00;2.00;;;;;;;;;;5008498;28;20454;-67
2022/12/05 14:41:26;;;;;;;6.17;1.70;;;;;;;;;;5003533;28;20487;-67
2022/12/05 14:43:53;;;;;;;2.83;2.73;;;;;;;;;;5000713;28;21045;-67
2022/12/05 14:46:25;;;;;;;4.50;4.20;;;;;;;;;;5009196;28;20430;-67
2022/12/05 14:48:51;;;;;;;6.93;2.80;;;;;;;;;;5008734;28;20998;-66
2022/12/05 14:51:32;;;;;;;1.40;1.40;;;;;;;;;;5008622;28;20813;-67
2022/12/05 14:54:15;;;;;;;1.20;1.20;;;;;;;;;;5007884;28;20845;-67
2022/12/05 14:57:01;;;;;;;6.63;1.10;;;;;;;;;;5009395;28;20487;-67
2022/12/05 14:59:29;;;;;;;2.40;2.30;;;;;;;;;;5008321;28;20570;-67
2022/12/05 15:01:56;;;;;;;2.33;2.33;;;;;;;;;;5008259;28;20534;-67
2022/12/05 15:04:34;;;;;;;4.13;2.67;;;;;;;;;;5007647;28;20424;-66